Time;durP1;ratioP1;P1;durP2;ratioP2;P2;SDS_P1;SDS_P2;PMS_P1;PMS_P2;Temp;Humidity;BMP_temperature;BMP_pressure;BME280_temperature;BME280_humidity;BME280_pressure;Samples;Min_cycle;Max_cycle;Signal;HPM_P1;HPM_P2
2020/12/14 00:01:35;;;;;;;1.65;0.70;;;7.20;99.90;;;;;;10440411;28;20384;-54
2020/12/14 00:06:56;;;;;;;1.50;0.38;;;7.30;99.90;;;;;;10443511;28;20049;-54
2020/12/14 00:12:17;;;;;;;1.58;0.30;;;7.30;99.90;;;;;;10447050;28;20494;-54
2020/12/14 00:17:38;;;;;;;0.82;0.20;;;7.30;99.90;;;;;;10444262;28;20044;-54
2020/12/14 00:22:58;;;;;;;3.00;0.88;;;7.40;99.90;;;;;;10443918;28;20049;-54
2020/12/14 00:28:19;;;;;;;8.20;0.60;;;7.40;99.90;;;;;;10442454;28;20479;-54
2020/12/14 00:33:40;;;;;;;9.75;1.27;;;7.50;99.90;;;;;;10449162;28;20131;-54
2020/12/14 00:39:03;;;;;;;3.28;1.40;;;7.50;99.90;;;;;;10444194;28;20033;-54
2020/12/14 00:44:24;;;;;;;0.30;0.15;;;7.60;99.90;;;;;;10446595;28;20040;-54
2020/12/14 00:49:45;;;;;;;0.63;0.30;;;7.60;99.90;;;;;;10444236;28;20143;-54
2020/12/14 00:55:06;;;;;;;1.35;0.57;;;7.60;99.90;;;;;;10444661;28;20094;-54
2020/12/14 01:00:27;;;;;;;8.35;0.40;;;7.70;99.90;;;;;;10434151;28;20064;-54
2020/12/14 01:05:48;;;;;;;2.72;0.65;;;7.70;99.90;;;;;;10442824;28;20037;-54
2020/12/14 01:11:09;;;;;;;1.00;0.35;;;7.70;99.90;;;;;;10444887;28;20063;-54
2020/12/14 01:16:30;;;;;;;6.70;0.95;;;7.80;99.90;;;;;;10446918;28;20066;-54
2020/12/14 01:21:51;;;;;;;1.35;0.57;;;7.80;99.90;;;;;;10431169;28;20052;-54
2020/12/14 01:27:12;;;;;;;1.38;0.65;;;7.90;99.90;;;;;;10440809;28;20044;-54
2020/12/14 01:32:32;;;;;;;0.98;0.38;;;7.90;99.90;;;;;;10439292;28;20163;-54
2020/12/14 01:37:54;;;;;;;4.50;0.50;;;8.00;99.90;;;;;;10438703;28;20132;-54
2020/12/14 01:43:16;;;;;;;0.68;0.30;;;8.00;99.90;;;;;;10438945;28;20033;-54
2020/12/14 01:48:37;;;;;;;0.47;0.20;;;8.00;99.90;;;;;;10441336;28;20397;-54
2020/12/14 01:53:59;;;;;;;9.00;0.73;;;8.00;99.90;;;;;;10438204;28;20851;-54
2020/12/14 01:59:20;;;;;;;4.72;0.38;;;8.10;99.90;;;;;;10439135;28;20040;-54
2020/12/14 02:04:41;;;;;;;0.95;0.40;;;8.10;99.90;;;;;;10441623;28;20556;-54
2020/12/14 02:10:03;;;;;;;3.25;0.25;;;8.10;99.90;;;;;;10438891;28;20068;-54
2020/12/14 02:15:24;;;;;;;1.65;0.40;;;8.10;99.90;;;;;;10442596;28;20070;-54
2020/12/14 02:20:45;;;;;;;2.22;0.40;;;8.10;99.90;;;;;;10441299;28;20248;-54
2020/12/14 02:26:05;;;;;;;2.33;1.08;;;8.20;99.90;;;;;;10442720;28;20053;-54
2020/12/14 02:31:26;;;;;;;1.17;0.40;;;8.20;99.90;;;;;;10438511;28;20037;-54
2020/12/14 02:36:47;;;;;;;2.08;0.88;;;8.10;99.90;;;;;;10440294;28;20040;-54
2020/12/14 02:42:13;;;;;;;0.80;0.32;;;8.10;99.90;;;;;;10435765;28;20048;-54
2020/12/14 02:47:34;;;;;;;0.60;0.20;;;8.10;99.90;;;;;;10438506;28;20061;-54
2020/12/14 02:52:56;;;;;;;1.40;0.73;;;8.10;99.90;;;;;;10438113;28;20037;-54
2020/12/14 02:58:17;;;;;;;1.65;0.35;;;8.00;99.90;;;;;;10435774;28;20037;-54
2020/12/14 03:03:38;;;;;;;1.30;0.47;;;7.80;99.90;;;;;;10440631;28;20514;-55
2020/12/14 03:08:59;;;;;;;1.83;0.45;;;7.70;99.90;;;;;;10439531;28;20040;-54
2020/12/14 03:14:20;;;;;;;2.45;0.60;;;7.70;99.90;;;;;;10421526;28;20040;-54
2020/12/14 03:19:41;;;;;;;1.60;0.50;;;7.60;99.90;;;;;;10440017;28;20140;-55
2020/12/14 03:25:02;;;;;;;0.95;0.63;;;7.60;99.90;;;;;;10434291;28;20041;-55
2020/12/14 03:30:23;;;;;;;1.27;0.57;;;7.50;99.90;;;;;;10437358;28;20600;-55
2020/12/14 03:35:47;;;;;;;4.05;0.93;;;7.50;99.90;;;;;;10438412;28;20055;-55
2020/12/14 03:41:08;;;;;;;3.17;0.93;;;7.60;99.90;;;;;;10438896;28;20045;-55
2020/12/14 03:46:31;;;;;;;6.03;1.45;;;7.60;99.90;;;;;;10445545;28;20042;-56
2020/12/14 03:51:52;;;;;;;3.13;0.90;;;7.60;99.90;;;;;;10443093;28;20033;-56
2020/12/14 03:57:13;;;;;;;1.77;0.75;;;7.50;99.90;;;;;;10435872;28;20516;-56
2020/12/14 04:02:34;;;;;;;3.97;1.15;;;7.60;99.90;;;;;;10441708;28;20040;-56
2020/12/14 04:07:55;;;;;;;4.20;0.80;;;7.60;99.90;;;;;;10435495;28;20126;-56
2020/12/14 04:13:16;;;;;;;1.40;0.68;;;7.60;99.90;;;;;;10432069;28;20481;-55
2020/12/14 04:18:38;;;;;;;3.47;1.17;;;7.70;99.90;;;;;;10442395;28;20037;-56
2020/12/14 04:23:58;;;;;;;2.15;0.82;;;7.70;99.90;;;;;;10436834;28;20637;-56
2020/12/14 04:29:21;;;;;;;2.13;1.00;;;7.80;99.90;;;;;;10436228;28;20489;-56
2020/12/14 04:34:42;;;;;;;2.47;1.02;;;7.90;99.90;;;;;;10435955;28;20051;-56
2020/12/14 04:40:04;;;;;;;4.13;1.35;;;7.90;99.90;;;;;;10440826;28;20047;-56
2020/12/14 04:45:27;;;;;;;2.33;1.17;;;7.90;99.90;;;;;;10432415;28;20045;-56
2020/12/14 04:50:48;;;;;;;4.22;1.05;;;8.00;99.90;;;;;;10435386;28;20125;-56
2020/12/14 04:56:10;;;;;;;2.53;1.00;;;8.00;99.90;;;;;;10441866;28;20048;-56
2020/12/14 05:01:31;;;;;;;2.70;0.82;;;8.00;99.90;;;;;;10440277;28;20041;-56
2020/12/14 05:06:52;;;;;;;2.25;1.15;;;8.10;99.90;;;;;;10442565;28;20040;-56
2020/12/14 05:12:18;;;;;;;1.67;0.95;;;8.10;99.90;;;;;;10444834;28;20048;-56
2020/12/14 05:17:39;;;;;;;7.30;1.23;;;8.10;99.90;;;;;;10443641;28;20559;-56
2020/12/14 05:23:08;;;;;;;1.67;0.80;;;8.10;99.90;;;;;;10444389;28;20468;-56
2020/12/14 05:28:29;;;;;;;2.75;0.82;;;8.20;99.90;;;;;;10446296;28;20483;-57
2020/12/14 05:33:50;;;;;;;3.45;1.42;;;8.20;99.90;;;;;;10441374;28;20052;-57
2020/12/14 05:39:25;;;;;;;2.65;0.90;;;8.20;99.90;;;;;;10439450;28;20036;-57
2020/12/14 05:44:48;;;;;;;2.35;1.17;;;8.30;99.90;;;;;;10436394;28;20641;-56
2020/12/14 05:50:10;;;;;;;4.63;1.67;;;8.30;99.90;;;;;;10438070;28;20041;-57
2020/12/14 05:55:34;;;;;;;3.67;1.45;;;8.40;99.90;;;;;;10439923;28;20037;-56
2020/12/14 06:00:56;;;;;;;3.00;1.50;;;8.40;99.90;;;;;;10443589;28;20086;-57
2020/12/14 06:06:18;;;;;;;4.00;1.05;;;8.50;99.90;;;;;;10436569;28;20036;-57
2020/12/14 06:11:39;;;;;;;2.90;1.00;;;8.50;99.90;;;;;;10442380;28;20120;-56
2020/12/14 06:17:01;;;;;;;3.25;1.25;;;8.50;99.90;;;;;;10432239;28;20086;-57
2020/12/14 06:22:23;;;;;;;3.78;1.23;;;8.60;99.90;;;;;;10436110;28;20026;-56
2020/12/14 06:27:44;;;;;;;2.90;1.38;;;8.70;99.90;;;;;;10442085;28;20059;-57
2020/12/14 06:33:11;;;;;;;5.28;1.83;;;8.70;99.90;;;;;;10444491;28;21703;-56
2020/12/14 06:38:39;;;;;;;4.32;1.55;;;8.70;99.90;;;;;;10442700;28;20083;-56
2020/12/14 06:44:06;;;;;;;3.95;1.40;;;8.80;99.90;;;;;;10438203;28;20079;-56
2020/12/14 06:49:31;;;;;;;3.67;1.25;;;8.80;99.90;;;;;;10440250;28;20920;-57
2020/12/14 06:54:52;;;;;;;4.15;1.58;;;8.90;99.90;;;;;;10437023;28;20545;-56
2020/12/14 07:00:16;;;;;;;2.78;1.10;;;9.00;99.90;;;;;;10434477;28;20052;-56
2020/12/14 07:05:37;;;;;;;5.15;1.63;;;8.90;99.90;;;;;;10435975;28;20055;-56
2020/12/14 07:11:18;;;;;;;5.38;2.40;;;9.00;99.90;;;;;;10441528;28;20094;-56
2020/12/14 07:16:40;;;;;;;3.25;1.25;;;9.00;99.90;;;;;;10441332;28;20192;-56
2020/12/14 07:22:01;;;;;;;4.35;1.42;;;9.10;99.90;;;;;;10438460;28;20044;-56
2020/12/14 07:27:22;;;;;;;3.45;1.60;;;9.10;99.90;;;;;;10435921;28;20053;-56
2020/12/14 07:32:45;;;;;;;7.13;2.00;;;9.10;99.90;;;;;;10443009;28;20511;-56
2020/12/14 07:38:12;;;;;;;2.95;1.35;;;9.20;99.90;;;;;;10441215;28;20040;-56
2020/12/14 07:43:56;;;;;;;5.90;1.77;;;9.20;99.90;;;;;;10432188;28;20389;-56
2020/12/14 07:49:22;;;;;;;2.92;1.05;;;9.30;99.90;;;;;;10434619;28;20044;-56
2020/12/14 07:54:43;;;;;;;6.05;1.67;;;9.40;99.90;;;;;;10436973;28;20044;-56
2020/12/14 08:00:10;;;;;;;2.30;1.17;;;9.40;99.90;;;;;;10441831;28;20414;-56
2020/12/14 08:05:31;;;;;;;4.38;2.00;;;9.50;99.90;;;;;;10440013;28;20114;-54
2020/12/14 08:10:54;;;;;;;7.35;1.88;;;9.60;99.90;;;;;;10436390;28;20037;-54
2020/12/14 08:16:16;;;;;;;9.27;1.38;;;9.60;99.90;;;;;;10439065;28;20048;-56
2020/12/14 08:21:40;;;;;;;6.70;1.80;;;9.70;99.90;;;;;;10438305;28;20759;-56
2020/12/14 08:27:04;;;;;;;3.47;1.80;;;9.70;99.90;;;;;;10435809;28;20049;-57
2020/12/14 08:32:25;;;;;;;4.55;1.90;;;9.80;99.90;;;;;;10449351;28;20059;-54
2020/12/14 08:37:48;;;;;;;4.80;1.73;;;9.90;99.90;;;;;;10443226;28;21223;-54
2020/12/14 08:43:10;;;;;;;6.82;2.03;;;9.90;99.90;;;;;;10440587;28;20041;-54
2020/12/14 08:48:40;;;;;;;3.67;2.05;;;10.00;99.90;;;;;;10417944;28;20763;-53
2020/12/14 08:54:30;;;;;;;;;;;10.00;99.90;;;;;;10442166;28;20033;-54
2020/12/14 08:59:58;;;;;;;4.37;1.50;;;10.10;99.90;;;;;;10429659;28;20327;-54
2020/12/14 09:05:20;;;;;;;2.55;1.27;;;10.20;99.90;;;;;;10425797;28;20057;-53
2020/12/14 09:10:41;;;;;;;2.92;1.20;;;10.30;99.90;;;;;;10426845;28;20044;-54
2020/12/14 09:16:04;;;;;;;3.53;1.25;;;10.30;99.90;;;;;;10429500;28;20040;-53
2020/12/14 09:21:25;;;;;;;2.97;1.23;;;10.40;99.90;;;;;;10440113;28;20045;-54
2020/12/14 09:26:48;;;;;;;3.28;1.35;;;10.40;99.90;;;;;;10438176;28;20053;-54
2020/12/14 09:32:11;;;;;;;3.50;1.17;;;10.40;99.90;;;;;;10437571;28;20037;-54
2020/12/14 09:37:32;;;;;;;3.13;1.42;;;10.50;99.90;;;;;;10438914;28;20029;-54
2020/12/14 09:42:53;;;;;;;3.88;1.52;;;10.60;99.90;;;;;;10440683;28;20029;-54
2020/12/14 09:48:14;;;;;;;2.65;0.65;;;10.60;99.90;;;;;;10436834;28;20525;-54
2020/12/14 09:53:35;;;;;;;3.08;0.77;;;10.70;99.90;;;;;;10446511;28;20222;-54
2020/12/14 09:58:56;;;;;;;3.35;1.55;;;10.70;99.90;;;;;;10441584;28;20044;-54
2020/12/14 10:04:17;;;;;;;2.65;0.90;;;10.70;99.90;;;;;;10442482;28;20433;-53
2020/12/14 10:09:38;;;;;;;3.67;1.38;;;10.70;99.90;;;;;;10438845;28;20044;-54
2020/12/14 10:14:59;;;;;;;2.95;0.80;;;10.80;99.90;;;;;;10439384;28;20128;-54
2020/12/14 10:20:20;;;;;;;1.55;1.08;;;10.80;99.90;;;;;;10438718;28;20052;-53
2020/12/14 10:25:42;;;;;;;6.03;0.93;;;10.80;99.90;;;;;;10439330;28;20041;-54
2020/12/14 10:31:07;;;;;;;2.50;1.13;;;10.90;99.90;;;;;;10446123;28;20127;-53
2020/12/14 10:36:28;;;;;;;3.78;1.17;;;11.00;99.90;;;;;;10441127;28;20036;-53
2020/12/14 10:41:52;;;;;;;3.22;1.63;;;11.10;99.90;;;;;;10445436;28;20063;-54
2020/12/14 10:47:13;;;;;;;3.28;1.27;;;11.30;99.90;;;;;;10445765;28;20063;-53
2020/12/14 10:52:34;;;;;;;4.75;1.20;;;11.20;99.90;;;;;;10435339;28;20032;-53
2020/12/14 10:57:55;;;;;;;1.58;0.88;;;11.20;99.90;;;;;;10437075;28;20396;-54
2020/12/14 11:03:16;;;;;;;2.60;1.30;;;11.30;99.90;;;;;;10439229;28;20129;-53
2020/12/14 11:08:37;;;;;;;2.50;1.00;;;11.30;99.90;;;;;;10437181;28;20072;-55
2020/12/14 11:13:59;;;;;;;2.30;0.98;;;11.30;99.90;;;;;;10435364;28;20036;-54
2020/12/14 11:19:20;;;;;;;4.15;1.38;;;11.60;99.90;;;;;;10437887;28;20033;-53
2020/12/14 11:24:41;;;;;;;3.30;1.35;;;12.10;99.90;;;;;;10437907;28;20044;-53
2020/12/14 11:30:05;;;;;;;3.90;0.95;;;11.90;99.90;;;;;;10445621;28;20049;-55
2020/12/14 11:35:26;;;;;;;3.53;1.40;;;12.00;99.90;;;;;;10435335;28;20388;-53
2020/12/14 11:40:47;;;;;;;2.50;1.00;;;11.70;99.90;;;;;;10441873;28;20049;-53
2020/12/14 11:46:08;;;;;;;4.10;1.25;;;11.80;99.90;;;;;;10444898;28;20033;-55
2020/12/14 11:51:29;;;;;;;2.25;1.08;;;12.70;99.90;;;;;;10445159;28;20186;-55
2020/12/14 11:56:51;;;;;;;1.70;0.85;;;13.80;99.90;;;;;;10436244;28;20039;-55
2020/12/14 12:02:15;;;;;;;1.60;0.70;;;14.50;99.90;;;;;;10434655;28;20037;-55
2020/12/14 12:07:36;;;;;;;1.60;1.15;;;13.50;99.90;;;;;;10443697;28;20705;-55
2020/12/14 12:12:57;;;;;;;1.60;0.70;;;12.50;99.90;;;;;;10443081;28;20067;-55
2020/12/14 12:18:18;;;;;;;2.42;1.13;;;12.20;99.90;;;;;;10443566;28;20420;-53
2020/12/14 12:23:39;;;;;;;2.30;1.20;;;12.00;99.90;;;;;;10450409;28;20424;-53
2020/12/14 12:29:00;;;;;;;4.18;1.65;;;11.80;99.90;;;;;;10446466;28;20053;-53
2020/12/14 12:34:21;;;;;;;5.40;1.25;;;11.70;99.90;;;;;;10447183;28;20040;-54
2020/12/14 12:39:42;;;;;;;2.05;0.65;;;11.60;99.90;;;;;;10452738;28;20617;-53
2020/12/14 12:45:04;;;;;;;2.45;1.27;;;11.70;99.90;;;;;;10444336;28;20131;-56
2020/12/14 12:50:25;;;;;;;2.50;0.93;;;11.60;99.90;;;;;;10443451;28;20040;-55
2020/12/14 12:55:46;;;;;;;5.03;1.25;;;11.70;99.90;;;;;;10444926;28;20064;-55
2020/12/14 13:01:07;;;;;;;2.42;0.93;;;11.70;99.90;;;;;;10449967;28;20041;-55
2020/12/14 13:06:30;;;;;;;1.90;0.93;;;11.70;99.90;;;;;;10444955;28;20141;-53
2020/12/14 13:11:53;;;;;;;4.05;1.20;;;11.70;99.90;;;;;;10441311;28;20159;-52
2020/12/14 13:17:14;;;;;;;2.00;0.80;;;11.60;99.90;;;;;;10440286;28;20082;-53
2020/12/14 13:22:35;;;;;;;2.72;0.98;;;11.60;99.90;;;;;;10447246;28;20033;-55
2020/12/14 13:27:56;;;;;;;2.75;1.27;;;11.50;99.90;;;;;;10442924;28;20048;-53
2020/12/14 13:33:17;;;;;;;3.50;1.30;;;11.60;99.90;;;;;;10441485;28;20048;-53
2020/12/14 13:38:38;;;;;;;2.95;1.20;;;11.90;99.90;;;;;;10437678;28;20068;-54
2020/12/14 13:43:59;;;;;;;2.58;0.75;;;12.00;99.90;;;;;;10421231;28;20048;-53
2020/12/14 13:49:20;;;;;;;4.32;1.38;;;11.90;99.90;;;;;;10445510;28;20045;-54
2020/12/14 13:54:41;;;;;;;6.25;1.25;;;11.70;99.90;;;;;;10444686;28;20276;-53
2020/12/14 14:00:02;;;;;;;2.25;0.90;;;11.70;99.90;;;;;;10441277;28;20496;-54
2020/12/14 14:05:24;;;;;;;1.90;0.80;;;11.60;99.90;;;;;;10442673;28;21197;-53
2020/12/14 14:10:45;;;;;;;2.55;0.90;;;11.50;99.90;;;;;;10442893;28;20036;-54
2020/12/14 14:16:06;;;;;;;4.07;1.15;;;11.60;99.90;;;;;;10443319;28;20044;-53
2020/12/14 14:21:27;;;;;;;2.95;1.13;;;11.50;99.90;;;;;;10440594;28;20049;-53
2020/12/14 14:26:49;;;;;;;2.40;0.75;;;11.40;99.90;;;;;;10444828;28;20380;-53
2020/12/14 14:32:10;;;;;;;3.58;1.60;;;11.40;99.90;;;;;;10449479;28;20043;-53
2020/12/14 14:37:35;;;;;;;3.65;1.77;;;11.30;99.90;;;;;;10438223;28;20029;-53
2020/12/14 14:42:56;;;;;;;5.30;1.58;;;11.30;99.90;;;;;;10442186;28;20434;-54
2020/12/14 14:48:17;;;;;;;3.30;0.93;;;11.30;99.90;;;;;;10437448;28;20147;-53
2020/12/14 14:53:38;;;;;;;3.85;1.33;;;11.20;99.90;;;;;;10437397;28;20043;-53
2020/12/14 14:58:59;;;;;;;1.83;0.85;;;11.20;99.90;;;;;;10432229;28;20103;-53
2020/12/14 15:04:24;;;;;;;4.15;1.38;;;11.30;99.90;;;;;;10439907;28;20049;-53
2020/12/14 15:09:45;;;;;;;4.68;1.67;;;11.20;99.90;;;;;;10437818;28;20037;-53
2020/12/14 15:15:06;;;;;;;4.50;1.25;;;11.20;99.90;;;;;;10437384;28;20151;-53
2020/12/14 15:20:27;;;;;;;1.95;0.77;;;11.10;99.90;;;;;;10437642;28;20072;-53
2020/12/14 15:25:48;;;;;;;2.80;1.10;;;11.10;99.90;;;;;;10438032;28;20084;-54
2020/12/14 15:31:11;;;;;;;1.45;0.80;;;11.10;99.90;;;;;;10431406;28;20045;-53
2020/12/14 15:36:32;;;;;;;1.75;0.60;;;11.20;99.90;;;;;;10443581;28;20508;-53
2020/12/14 15:41:53;;;;;;;6.07;1.45;;;11.10;99.90;;;;;;10437680;28;20033;-53
2020/12/14 15:47:14;;;;;;;3.30;1.08;;;11.10;99.90;;;;;;10438524;28;20131;-53
2020/12/14 15:52:35;;;;;;;5.25;1.90;;;11.10;99.90;;;;;;10432077;28;20439;-53
2020/12/14 15:57:56;;;;;;;8.40;2.28;;;11.10;99.90;;;;;;10435914;28;20041;-53
2020/12/14 16:03:18;;;;;;;2.72;0.80;;;11.00;99.90;;;;;;10435450;28;20372;-54
2020/12/14 16:08:39;;;;;;;1.90;1.02;;;11.00;99.90;;;;;;10430333;28;20048;-53
2020/12/14 16:14:00;;;;;;;4.10;2.05;;;11.00;99.90;;;;;;10438829;28;20041;-53
2020/12/14 16:19:21;;;;;;;2.55;1.15;;;11.00;99.90;;;;;;10434117;28;20041;-53
2020/12/14 16:24:41;;;;;;;1.83;0.70;;;10.90;99.90;;;;;;10433877;28;20033;-55
2020/12/14 16:30:05;;;;;;;3.17;1.08;;;10.90;99.90;;;;;;10430595;28;20045;-53
2020/12/14 16:35:30;;;;;;;4.03;0.85;;;10.90;99.90;;;;;;10432089;28;20045;-53
2020/12/14 16:40:51;;;;;;;2.33;0.68;;;10.80;99.90;;;;;;10432975;28;20095;-53
2020/12/14 16:46:12;;;;;;;3.03;1.15;;;10.70;99.90;;;;;;10439556;28;20044;-53
2020/12/14 16:51:33;;;;;;;2.63;0.70;;;10.60;99.90;;;;;;10432512;28;20051;-53
2020/12/14 16:56:54;;;;;;;3.13;1.10;;;10.60;99.90;;;;;;10438144;28;20051;-53
2020/12/14 17:02:17;;;;;;;3.15;1.30;;;10.50;99.90;;;;;;10436968;28;21726;-52
2020/12/14 17:07:40;;;;;;;3.47;1.45;;;10.50;99.90;;;;;;10440249;28;20102;-53
2020/12/14 17:13:01;;;;;;;2.85;1.45;;;10.60;99.90;;;;;;10436335;28;20063;-55
2020/12/14 17:18:22;;;;;;;1.55;0.90;;;10.50;99.90;;;;;;10431744;28;20040;-52
2020/12/14 17:23:48;;;;;;;2.55;1.02;;;10.50;99.90;;;;;;10442200;28;20040;-53
2020/12/14 17:29:10;;;;;;;3.83;1.05;;;10.50;99.90;;;;;;10428488;28;20048;-53
2020/12/14 17:34:36;;;;;;;3.33;1.23;;;10.40;99.90;;;;;;10431401;28;20037;-53
2020/12/14 17:39:57;;;;;;;1.90;1.05;;;10.40;99.90;;;;;;10434778;28;20033;-53
2020/12/14 17:45:18;;;;;;;3.10;1.10;;;10.30;99.90;;;;;;10431687;28;20522;-53
2020/12/14 17:50:39;;;;;;;6.13;1.20;;;10.30;99.90;;;;;;10420200;28;20048;-53
2020/12/14 17:56:00;;;;;;;3.40;1.05;;;10.30;99.90;;;;;;10427880;28;20495;-52
2020/12/14 18:01:24;;;;;;;7.35;1.17;;;10.30;99.90;;;;;;10432369;28;20120;-52
2020/12/14 18:06:46;;;;;;;3.38;1.50;;;10.20;99.90;;;;;;10424165;28;20048;-52
2020/12/14 18:12:09;;;;;;;2.03;0.75;;;10.20;99.90;;;;;;10427976;28;20415;-53
2020/12/14 18:17:30;;;;;;;1.45;0.80;;;10.10;99.90;;;;;;10428358;28;20096;-54
2020/12/14 18:22:51;;;;;;;2.65;0.82;;;10.30;99.90;;;;;;10430554;28;20136;-54
2020/12/14 18:28:12;;;;;;;2.13;0.95;;;10.20;99.90;;;;;;10437682;28;20037;-55
2020/12/14 21:29:05;;;;;;;3.95;1.90;;;10.00;99.90;;;;;;10445106;28;20049;-55
2020/12/14 21:34:27;;;;;;;3.97;2.00;;;10.00;99.90;;;;;;10447543;28;20053;-53
2020/12/14 21:39:48;;;;;;;5.80;2.28;;;10.00;99.90;;;;;;10440084;28;20029;-52
2020/12/14 21:45:09;;;;;;;4.32;1.48;;;10.00;99.90;;;;;;10440110;28;20037;-52
2020/12/14 21:50:30;;;;;;;3.60;1.33;;;10.10;99.90;;;;;;10442703;28;20106;-53
2020/12/14 21:55:51;;;;;;;4.75;2.20;;;10.10;99.90;;;;;;10447081;28;20080;-52
2020/12/14 22:01:12;;;;;;;2.92;1.25;;;10.10;99.90;;;;;;10439027;28;20045;-52
2020/12/14 22:06:33;;;;;;;6.25;2.70;;;10.20;99.90;;;;;;10448503;28;20051;-53
2020/12/14 22:11:54;;;;;;;6.05;1.80;;;10.10;99.90;;;;;;10435283;28;20052;-53
2020/12/14 22:17:15;;;;;;;3.60;1.75;;;10.10;99.90;;;;;;10435460;28;20029;-53
2020/12/14 22:22:37;;;;;;;2.97;1.30;;;10.10;99.90;;;;;;10440566;28;20067;-52
2020/12/14 22:27:58;;;;;;;3.78;1.20;;;10.20;99.90;;;;;;10447175;28;20124;-52
2020/12/14 22:33:19;;;;;;;5.60;2.25;;;10.10;99.90;;;;;;10429328;28;20494;-53
2020/12/14 22:38:41;;;;;;;8.05;3.05;;;10.20;99.90;;;;;;10450504;28;20169;-53
2020/12/14 22:44:02;;;;;;;2.60;1.17;;;10.20;99.90;;;;;;10441369;28;20072;-54
2020/12/14 22:49:23;;;;;;;4.57;2.13;;;10.20;99.90;;;;;;10434706;28;20048;-54
2020/12/14 22:54:44;;;;;;;3.92;1.88;;;10.20;99.90;;;;;;10447921;28;20055;-55
2020/12/14 23:00:07;;;;;;;5.43;1.95;;;10.20;99.90;;;;;;10441030;28;20055;-55
2020/12/14 23:05:28;;;;;;;4.63;1.85;;;10.10;99.90;;;;;;10426328;28;20491;-55
2020/12/14 23:10:49;;;;;;;4.93;2.25;;;10.10;99.90;;;;;;10435289;28;20040;-54
2020/12/14 23:16:10;;;;;;;4.55;2.17;;;10.10;99.90;;;;;;10439557;28;20413;-54
2020/12/14 23:21:31;;;;;;;16.00;1.77;;;10.10;99.90;;;;;;10436238;28;20057;-54
2020/12/14 23:26:57;;;;;;;8.00;2.25;;;10.00;99.90;;;;;;10440775;28;20480;-54
2020/12/14 23:32:20;;;;;;;5.30;1.55;;;10.00;99.90;;;;;;10444089;28;20037;-54
2020/12/14 23:37:41;;;;;;;3.22;1.52;;;10.00;99.90;;;;;;10440137;28;20044;-54
2020/12/14 23:43:02;;;;;;;3.30;1.08;;;10.10;99.90;;;;;;10439374;28;20127;-54
2020/12/14 23:48:23;;;;;;;2.92;1.58;;;10.00;99.90;;;;;;10436348;28;20095;-55
2020/12/14 23:53:44;;;;;;;3.55;1.63;;;10.00;99.90;;;;;;10432792;28;20045;-54
2020/12/14 23:59:05;;;;;;;3.53;1.27;;;10.10;99.90;;;;;;10441733;28;20041;-54
